Pagrindinis puslapis
METAR-TAF:

METAR-TAF

Oro uostai :

DeRidder, Luiziana, Jungtinės Amerikos Valstijos

platuma: 30-49-54N, ilguma: 093-20-23W, Aukštis: 63 m

Dabartinis oras

Ataskaita buvo paskelbta 24 minutes, ne 02:55 UTC
Vėjas 6 kt iš Pietryčių
Temperatūra 23°C
Drėgmė 89%
Slėgis 1016 hPa
Matomumas: 16.1 km
Išsisklaidę debesys ne aukštis 12000 ft

METAR: KDRI 170255Z AUTO 13006KT 10SM SCT120 23/21 A3001 RMK AO2 T02280205

Laikas: 22:19 (03:19 UTC)


TAF: trūkstamas

Orai ataskaitas ir orų prognozės (METAR, TAF).

turimą stotys yra geltonos ir raudonos taškus žemėlapyje.

Perkelti pele per norėdami pamatyti stoties vardą.

Tada spustelėkite, norėdami matyti oro stebėjimo ir prognozės.

Norėdami pakeisti žemėlapį: spustelėkite ant žalios mygtukų su juodo kryžiaus žemyn,; žalią mygtuką su brūkšneliu, jei norite nutolinti; arba žalių rodyklių gretimoms žemėlapius.


METAR-TAF: